sensor_id;sensor_type;location;lat;lon;timestamp;temperature;humidity
16066;DHT22;8137;48.952;8.970;2022-09-27T00:00:20;10.90;99.90
16066;DHT22;8137;48.952;8.970;2022-09-27T00:02:46;10.90;99.90
16066;DHT22;8137;48.952;8.970;2022-09-27T00:05:12;11.00;99.90
16066;DHT22;8137;48.952;8.970;2022-09-27T00:07:38;11.00;99.90
16066;DHT22;8137;48.952;8.970;2022-09-27T00:10:04;11.00;99.90
16066;DHT22;8137;48.952;8.970;2022-09-27T00:12:30;11.00;99.90
16066;DHT22;8137;48.952;8.970;2022-09-27T00:14:55;11.00;99.90
16066;DHT22;8137;48.952;8.970;2022-09-27T00:17:21;10.90;99.90
16066;DHT22;8137;48.952;8.970;2022-09-27T00:19:46;11.00;99.90
16066;DHT22;8137;48.952;8.970;2022-09-27T00:22:12;10.90;99.90
16066;DHT22;8137;48.952;8.970;2022-09-27T00:24:38;11.00;99.90
16066;DHT22;8137;48.952;8.970;2022-09-27T00:27:03;11.00;99.90
16066;DHT22;8137;48.952;8.970;2022-09-27T00:29:29;10.90;99.90
16066;DHT22;8137;48.952;8.970;2022-09-27T00:31:55;10.90;99.90
16066;DHT22;8137;48.952;8.970;2022-09-27T00:34:23;11.00;99.90
16066;DHT22;8137;48.952;8.970;2022-09-27T00:36:49;10.90;99.90
16066;DHT22;8137;48.952;8.970;2022-09-27T00:39:15;10.90;99.90
16066;DHT22;8137;48.952;8.970;2022-09-27T00:41:41;10.90;99.90
16066;DHT22;8137;48.952;8.970;2022-09-27T00:47:24;10.90;99.90
16066;DHT22;8137;48.952;8.970;2022-09-27T00:52:44;10.90;99.90
16066;DHT22;8137;48.952;8.970;2022-09-27T00:55:19;10.90;99.90
16066;DHT22;8137;48.952;8.970;2022-09-27T00:57:48;10.90;99.90
16066;DHT22;8137;48.952;8.970;2022-09-27T01:00:15;11.00;99.90
16066;DHT22;8137;48.952;8.970;2022-09-27T01:02:44;10.90;99.90
16066;DHT22;8137;48.952;8.970;2022-09-27T01:05:14;10.90;99.90
16066;DHT22;8137;48.952;8.970;2022-09-27T01:07:40;10.90;99.90
16066;DHT22;8137;48.952;8.970;2022-09-27T01:10:06;10.80;99.90
16066;DHT22;8137;48.952;8.970;2022-09-27T01:15:25;10.80;99.90
16066;DHT22;8137;48.952;8.970;2022-09-27T01:28:55;10.80;99.90
16066;DHT22;8137;48.952;8.970;2022-09-27T01:39:13;10.80;99.90
16066;DHT22;8137;48.952;8.970;2022-09-27T01:41:55;10.80;99.90
16066;DHT22;8137;48.952;8.970;2022-09-27T01:47:03;10.70;99.90
16066;DHT22;8137;48.952;8.970;2022-09-27T01:52:28;10.70;99.90
16066;DHT22;8137;48.952;8.970;2022-09-27T01:54:58;10.70;99.90
16066;DHT22;8137;48.952;8.970;2022-09-27T01:57:31;10.70;99.90
16066;DHT22;8137;48.952;8.970;2022-09-27T02:00:09;10.70;99.90
16066;DHT22;8137;48.952;8.970;2022-09-27T02:02:39;10.70;99.90
16066;DHT22;8137;48.952;8.970;2022-09-27T02:05:07;10.60;99.90
16066;DHT22;8137;48.952;8.970;2022-09-27T02:10:14;10.50;99.90
16066;DHT22;8137;48.952;8.970;2022-09-27T02:12:57;10.50;99.90
16066;DHT22;8137;48.952;8.970;2022-09-27T02:15:26;10.50;99.90
16066;DHT22;8137;48.952;8.970;2022-09-27T02:17:58;10.40;99.90
16066;DHT22;8137;48.952;8.970;2022-09-27T02:20:30;10.30;99.90
16066;DHT22;8137;48.952;8.970;2022-09-27T02:23:21;10.30;99.90
16066;DHT22;8137;48.952;8.970;2022-09-27T02:25:58;10.30;99.90
16066;DHT22;8137;48.952;8.970;2022-09-27T02:28:41;10.20;99.90
16066;DHT22;8137;48.952;8.970;2022-09-27T02:31:08;10.20;99.90
16066;DHT22;8137;48.952;8.970;2022-09-27T02:34:08;10.20;99.90
16066;DHT22;8137;48.952;8.970;2022-09-27T02:36:35;10.10;99.90
16066;DHT22;8137;48.952;8.970;2022-09-27T02:39:02;10.10;99.90
16066;DHT22;8137;48.952;8.970;2022-09-27T02:41:28;10.00;99.90
16066;DHT22;8137;48.952;8.970;2022-09-27T02:43:59;10.00;99.90
16066;DHT22;8137;48.952;8.970;2022-09-27T02:46:37;10.00;99.90
16066;DHT22;8137;48.952;8.970;2022-09-27T02:52:16;10.00;99.90
16066;DHT22;8137;48.952;8.970;2022-09-27T03:00:56;10.00;99.90
16066;DHT22;8137;48.952;8.970;2022-09-27T03:03:37;10.00;99.90
16066;DHT22;8137;48.952;8.970;2022-09-27T03:06:08;10.00;99.90
16066;DHT22;8137;48.952;8.970;2022-09-27T03:08:36;10.00;99.90
16066;DHT22;8137;48.952;8.970;2022-09-27T03:11:03;10.00;99.90
16066;DHT22;8137;48.952;8.970;2022-09-27T03:13:29;10.00;99.90
16066;DHT22;8137;48.952;8.970;2022-09-27T03:15:55;9.90;99.90
16066;DHT22;8137;48.952;8.970;2022-09-27T03:18:20;9.90;99.90
16066;DHT22;8137;48.952;8.970;2022-09-27T03:20:46;9.90;99.90
16066;DHT22;8137;48.952;8.970;2022-09-27T03:23:12;10.00;99.90
16066;DHT22;8137;48.952;8.970;2022-09-27T03:25:37;10.00;99.90
16066;DHT22;8137;48.952;8.970;2022-09-27T03:28:03;10.00;99.90
16066;DHT22;8137;48.952;8.970;2022-09-27T03:30:29;10.00;99.90
16066;DHT22;8137;48.952;8.970;2022-09-27T03:32:54;10.00;99.90
16066;DHT22;8137;48.952;8.970;2022-09-27T03:35:20;10.00;99.90
16066;DHT22;8137;48.952;8.970;2022-09-27T03:37:46;10.00;99.90
16066;DHT22;8137;48.952;8.970;2022-09-27T03:40:12;10.00;99.90
16066;DHT22;8137;48.952;8.970;2022-09-27T03:42:38;10.10;99.90
16066;DHT22;8137;48.952;8.970;2022-09-27T03:45:04;10.10;99.90
16066;DHT22;8137;48.952;8.970;2022-09-27T03:47:30;10.00;99.90
16066;DHT22;8137;48.952;8.970;2022-09-27T03:49:56;10.00;99.90
16066;DHT22;8137;48.952;8.970;2022-09-27T03:52:21;10.10;99.90
16066;DHT22;8137;48.952;8.970;2022-09-27T03:54:47;10.10;99.90
16066;DHT22;8137;48.952;8.970;2022-09-27T03:57:13;10.10;99.90
16066;DHT22;8137;48.952;8.970;2022-09-27T03:59:38;10.10;99.90
16066;DHT22;8137;48.952;8.970;2022-09-27T04:02:04;10.10;99.90
16066;DHT22;8137;48.952;8.970;2022-09-27T04:04:30;10.10;99.90
16066;DHT22;8137;48.952;8.970;2022-09-27T04:06:56;10.00;99.90
16066;DHT22;8137;48.952;8.970;2022-09-27T04:09:22;10.00;99.90
16066;DHT22;8137;48.952;8.970;2022-09-27T04:11:47;10.00;99.90
16066;DHT22;8137;48.952;8.970;2022-09-27T04:14:13;10.00;99.90
16066;DHT22;8137;48.952;8.970;2022-09-27T04:16:39;10.00;99.90
16066;DHT22;8137;48.952;8.970;2022-09-27T04:19:05;10.00;99.90
16066;DHT22;8137;48.952;8.970;2022-09-27T04:21:32;10.00;99.90
16066;DHT22;8137;48.952;8.970;2022-09-27T04:23:58;10.00;99.90
16066;DHT22;8137;48.952;8.970;2022-09-27T04:26:24;10.00;99.90
16066;DHT22;8137;48.952;8.970;2022-09-27T04:28:51;10.00;99.90
16066;DHT22;8137;48.952;8.970;2022-09-27T04:31:17;10.00;99.90
16066;DHT22;8137;48.952;8.970;2022-09-27T04:33:43;10.00;99.90
16066;DHT22;8137;48.952;8.970;2022-09-27T04:36:16;10.00;99.90
16066;DHT22;8137;48.952;8.970;2022-09-27T04:39:02;10.10;99.90
16066;DHT22;8137;48.952;8.970;2022-09-27T04:41:29;10.10;99.90
16066;DHT22;8137;48.952;8.970;2022-09-27T04:43:55;10.00;99.90
16066;DHT22;8137;48.952;8.970;2022-09-27T04:46:21;10.00;99.90
16066;DHT22;8137;48.952;8.970;2022-09-27T04:48:47;10.00;99.90
16066;DHT22;8137;48.952;8.970;2022-09-27T04:51:14;10.00;99.90
16066;DHT22;8137;48.952;8.970;2022-09-27T04:53:43;10.00;99.90
16066;DHT22;8137;48.952;8.970;2022-09-27T04:56:10;10.00;99.90
16066;DHT22;8137;48.952;8.970;2022-09-27T04:58:35;10.00;99.90
16066;DHT22;8137;48.952;8.970;2022-09-27T05:01:01;10.00;99.90
16066;DHT22;8137;48.952;8.970;2022-09-27T05:03:29;10.00;99.90
16066;DHT22;8137;48.952;8.970;2022-09-27T05:05:55;10.00;99.90
16066;DHT22;8137;48.952;8.970;2022-09-27T05:08:20;9.90;99.90
16066;DHT22;8137;48.952;8.970;2022-09-27T05:10:47;9.90;99.90
16066;DHT22;8137;48.952;8.970;2022-09-27T05:13:13;9.90;99.90
16066;DHT22;8137;48.952;8.970;2022-09-27T05:15:40;9.90;99.90
16066;DHT22;8137;48.952;8.970;2022-09-27T05:18:06;9.90;99.90
16066;DHT22;8137;48.952;8.970;2022-09-27T05:20:33;9.90;99.90
16066;DHT22;8137;48.952;8.970;2022-09-27T05:22:59;9.90;99.90
16066;DHT22;8137;48.952;8.970;2022-09-27T05:25:25;9.90;99.90
16066;DHT22;8137;48.952;8.970;2022-09-27T05:27:51;9.90;99.90
16066;DHT22;8137;48.952;8.970;2022-09-27T05:30:17;9.80;99.90
16066;DHT22;8137;48.952;8.970;2022-09-27T05:32:43;9.80;99.90
16066;DHT22;8137;48.952;8.970;2022-09-27T05:35:10;9.80;99.90
16066;DHT22;8137;48.952;8.970;2022-09-27T05:37:36;9.90;99.90
16066;DHT22;8137;48.952;8.970;2022-09-27T05:40:03;9.90;99.90
16066;DHT22;8137;48.952;8.970;2022-09-27T05:42:29;9.90;99.90
16066;DHT22;8137;48.952;8.970;2022-09-27T05:44:55;9.80;99.90
16066;DHT22;8137;48.952;8.970;2022-09-27T05:47:20;9.90;99.90
16066;DHT22;8137;48.952;8.970;2022-09-27T05:49:46;9.90;99.90
16066;DHT22;8137;48.952;8.970;2022-09-27T05:52:11;9.90;99.90
16066;DHT22;8137;48.952;8.970;2022-09-27T05:54:37;9.90;99.90
16066;DHT22;8137;48.952;8.970;2022-09-27T05:57:03;9.90;99.90
16066;DHT22;8137;48.952;8.970;2022-09-27T05:59:30;9.90;99.90
16066;DHT22;8137;48.952;8.970;2022-09-27T06:01:55;10.00;99.90
16066;DHT22;8137;48.952;8.970;2022-09-27T06:04:21;10.10;99.90
16066;DHT22;8137;48.952;8.970;2022-09-27T06:06:48;10.20;99.90
16066;DHT22;8137;48.952;8.970;2022-09-27T06:09:15;10.20;99.90
16066;DHT22;8137;48.952;8.970;2022-09-27T06:11:41;10.20;99.90
16066;DHT22;8137;48.952;8.970;2022-09-27T06:14:08;10.30;99.90
16066;DHT22;8137;48.952;8.970;2022-09-27T06:16:34;10.30;99.90
16066;DHT22;8137;48.952;8.970;2022-09-27T06:18:59;10.30;99.90
16066;DHT22;8137;48.952;8.970;2022-09-27T06:21:25;10.30;99.90
16066;DHT22;8137;48.952;8.970;2022-09-27T06:23:53;10.30;99.90
16066;DHT22;8137;48.952;8.970;2022-09-27T06:26:19;10.30;99.90
16066;DHT22;8137;48.952;8.970;2022-09-27T06:28:46;10.30;99.90
16066;DHT22;8137;48.952;8.970;2022-09-27T06:31:12;10.30;99.90
16066;DHT22;8137;48.952;8.970;2022-09-27T06:33:38;10.20;99.90
16066;DHT22;8137;48.952;8.970;2022-09-27T06:36:05;10.10;99.90
16066;DHT22;8137;48.952;8.970;2022-09-27T06:38:31;10.10;99.90
16066;DHT22;8137;48.952;8.970;2022-09-27T06:41:00;10.10;99.90
16066;DHT22;8137;48.952;8.970;2022-09-27T06:43:26;10.10;99.90
16066;DHT22;8137;48.952;8.970;2022-09-27T06:45:52;10.10;99.90
16066;DHT22;8137;48.952;8.970;2022-09-27T06:48:18;10.10;99.90
16066;DHT22;8137;48.952;8.970;2022-09-27T06:50:45;10.00;99.90
16066;DHT22;8137;48.952;8.970;2022-09-27T06:53:14;10.00;99.90
16066;DHT22;8137;48.952;8.970;2022-09-27T06:55:40;10.00;99.90
16066;DHT22;8137;48.952;8.970;2022-09-27T06:58:08;9.90;99.90
16066;DHT22;8137;48.952;8.970;2022-09-27T07:00:52;9.90;99.90
16066;DHT22;8137;48.952;8.970;2022-09-27T07:03:20;9.90;99.90
16066;DHT22;8137;48.952;8.970;2022-09-27T07:05:57;10.00;99.90
16066;DHT22;8137;48.952;8.970;2022-09-27T07:08:23;10.00;99.90
16066;DHT22;8137;48.952;8.970;2022-09-27T07:10:50;10.00;99.90
16066;DHT22;8137;48.952;8.970;2022-09-27T07:13:17;10.00;99.90
16066;DHT22;8137;48.952;8.970;2022-09-27T07:15:43;9.90;99.90
16066;DHT22;8137;48.952;8.970;2022-09-27T07:18:09;9.90;99.90
16066;DHT22;8137;48.952;8.970;2022-09-27T07:20:35;10.00;99.90
16066;DHT22;8137;48.952;8.970;2022-09-27T07:23:03;10.00;99.90
16066;DHT22;8137;48.952;8.970;2022-09-27T07:25:30;10.00;99.90
16066;DHT22;8137;48.952;8.970;2022-09-27T07:28:04;10.00;99.90
16066;DHT22;8137;48.952;8.970;2022-09-27T07:30:30;10.00;99.90
16066;DHT22;8137;48.952;8.970;2022-09-27T07:32:57;10.00;99.90
16066;DHT22;8137;48.952;8.970;2022-09-27T07:35:24;10.00;99.90
16066;DHT22;8137;48.952;8.970;2022-09-27T07:37:50;10.00;99.90
16066;DHT22;8137;48.952;8.970;2022-09-27T07:40:17;10.10;99.90
16066;DHT22;8137;48.952;8.970;2022-09-27T07:42:43;10.10;99.90
16066;DHT22;8137;48.952;8.970;2022-09-27T07:45:10;10.20;99.90
16066;DHT22;8137;48.952;8.970;2022-09-27T07:47:38;10.10;99.90
16066;DHT22;8137;48.952;8.970;2022-09-27T07:50:05;10.20;99.90
16066;DHT22;8137;48.952;8.970;2022-09-27T07:52:41;10.40;99.90
16066;DHT22;8137;48.952;8.970;2022-09-27T07:55:09;10.50;99.90
16066;DHT22;8137;48.952;8.970;2022-09-27T07:57:35;10.50;99.90
16066;DHT22;8137;48.952;8.970;2022-09-27T08:00:05;10.50;99.90
16066;DHT22;8137;48.952;8.970;2022-09-27T08:02:31;10.50;99.90
16066;DHT22;8137;48.952;8.970;2022-09-27T08:05:00;10.60;99.90
16066;DHT22;8137;48.952;8.970;2022-09-27T08:07:27;10.80;99.90
16066;DHT22;8137;48.952;8.970;2022-09-27T08:09:53;10.80;99.90
16066;DHT22;8137;48.952;8.970;2022-09-27T08:12:19;10.90;99.90
16066;DHT22;8137;48.952;8.970;2022-09-27T08:14:47;11.10;99.90
16066;DHT22;8137;48.952;8.970;2022-09-27T08:17:13;11.20;99.90
16066;DHT22;8137;48.952;8.970;2022-09-27T08:19:39;11.20;99.90
16066;DHT22;8137;48.952;8.970;2022-09-27T08:22:08;11.30;99.90
16066;DHT22;8137;48.952;8.970;2022-09-27T08:24:34;11.30;99.90
16066;DHT22;8137;48.952;8.970;2022-09-27T08:27:01;11.20;99.90
16066;DHT22;8137;48.952;8.970;2022-09-27T08:29:26;11.20;99.90
16066;DHT22;8137;48.952;8.970;2022-09-27T08:31:52;11.30;99.90
16066;DHT22;8137;48.952;8.970;2022-09-27T08:34:19;11.20;99.90
16066;DHT22;8137;48.952;8.970;2022-09-27T08:36:45;11.10;99.90
16066;DHT22;8137;48.952;8.970;2022-09-27T08:39:10;10.90;99.90
16066;DHT22;8137;48.952;8.970;2022-09-27T08:41:46;10.90;99.90
16066;DHT22;8137;48.952;8.970;2022-09-27T08:47:26;11.20;99.90
16066;DHT22;8137;48.952;8.970;2022-09-27T08:52:35;11.70;99.90
16066;DHT22;8137;48.952;8.970;2022-09-27T08:55:55;11.90;99.90
16066;DHT22;8137;48.952;8.970;2022-09-27T08:57:57;11.80;99.90
16066;DHT22;8137;48.952;8.970;2022-09-27T09:00:24;11.50;99.90
16066;DHT22;8137;48.952;8.970;2022-09-27T09:02:50;11.40;99.90
16066;DHT22;8137;48.952;8.970;2022-09-27T09:05:30;11.20;99.90
16066;DHT22;8137;48.952;8.970;2022-09-27T09:08:22;11.10;99.90
16066;DHT22;8137;48.952;8.970;2022-09-27T09:11:07;11.10;99.90
16066;DHT22;8137;48.952;8.970;2022-09-27T09:33:55;12.70;99.90
16066;DHT22;8137;48.952;8.970;2022-09-27T09:39:02;12.60;99.90
16066;DHT22;8137;48.952;8.970;2022-09-27T09:44:12;12.20;99.90
16066;DHT22;8137;48.952;8.970;2022-09-27T09:46:43;12.20;99.90
16066;DHT22;8137;48.952;8.970;2022-09-27T09:51:48;12.00;99.90
16066;DHT22;8137;48.952;8.970;2022-09-27T09:54:23;12.10;99.90
16066;DHT22;8137;48.952;8.970;2022-09-27T09:57:02;12.10;99.90
16066;DHT22;8137;48.952;8.970;2022-09-27T09:59:35;12.30;99.90
16066;DHT22;8137;48.952;8.970;2022-09-27T10:02:25;12.70;99.90
16066;DHT22;8137;48.952;8.970;2022-09-27T10:04:52;13.20;99.90
16066;DHT22;8137;48.952;8.970;2022-09-27T10:07:20;13.60;99.90
16066;DHT22;8137;48.952;8.970;2022-09-27T10:09:48;13.90;99.90
16066;DHT22;8137;48.952;8.970;2022-09-27T10:12:14;13.90;99.90
16066;DHT22;8137;48.952;8.970;2022-09-27T10:14:41;13.80;99.90
16066;DHT22;8137;48.952;8.970;2022-09-27T10:17:10;13.50;99.90
16066;DHT22;8137;48.952;8.970;2022-09-27T10:19:39;13.40;99.90
16066;DHT22;8137;48.952;8.970;2022-09-27T10:22:39;12.90;99.90
16066;DHT22;8137;48.952;8.970;2022-09-27T10:25:08;12.70;99.90
16066;DHT22;8137;48.952;8.970;2022-09-27T10:27:53;12.50;99.90
16066;DHT22;8137;48.952;8.970;2022-09-27T10:30:29;12.10;99.90
16066;DHT22;8137;48.952;8.970;2022-09-27T10:33:13;11.90;99.90
16066;DHT22;8137;48.952;8.970;2022-09-27T10:35:42;11.80;99.90
16066;DHT22;8137;48.952;8.970;2022-09-27T10:40:48;11.90;99.90
16066;DHT22;8137;48.952;8.970;2022-09-27T10:43:37;11.90;99.90
16066;DHT22;8137;48.952;8.970;2022-09-27T10:46:13;12.00;99.90
16066;DHT22;8137;48.952;8.970;2022-09-27T10:48:40;11.80;99.90
16066;DHT22;8137;48.952;8.970;2022-09-27T10:51:38;11.70;99.90
16066;DHT22;8137;48.952;8.970;2022-09-27T10:54:04;11.60;99.90
16066;DHT22;8137;48.952;8.970;2022-09-27T10:56:32;11.60;99.90
16066;DHT22;8137;48.952;8.970;2022-09-27T10:58:58;11.50;99.90
16066;DHT22;8137;48.952;8.970;2022-09-27T11:01:26;11.50;99.90
16066;DHT22;8137;48.952;8.970;2022-09-27T11:04:03;11.40;99.90
16066;DHT22;8137;48.952;8.970;2022-09-27T11:06:31;11.30;99.90
16066;DHT22;8137;48.952;8.970;2022-09-27T11:09:23;11.40;99.90
16066;DHT22;8137;48.952;8.970;2022-09-27T11:12:05;11.20;99.90
16066;DHT22;8137;48.952;8.970;2022-09-27T11:14:30;11.10;99.90
16066;DHT22;8137;48.952;8.970;2022-09-27T11:17:26;11.00;99.90
16066;DHT22;8137;48.952;8.970;2022-09-27T11:22:35;10.70;99.90
16066;DHT22;8137;48.952;8.970;2022-09-27T11:30:22;10.20;99.90
16066;DHT22;8137;48.952;8.970;2022-09-27T11:39:20;9.60;99.90
16066;DHT22;8137;48.952;8.970;2022-09-27T11:41:58;9.50;99.90
16066;DHT22;8137;48.952;8.970;2022-09-27T11:50:14;9.30;99.90
16066;DHT22;8137;48.952;8.970;2022-09-27T11:55:48;9.00;99.90
16066;DHT22;8137;48.952;8.970;2022-09-27T11:58:38;8.90;99.90
16066;DHT22;8137;48.952;8.970;2022-09-27T12:09:40;9.20;99.90
16066;DHT22;8137;48.952;8.970;2022-09-27T12:12:18;9.40;99.90
16066;DHT22;8137;48.952;8.970;2022-09-27T12:14:52;9.60;99.90
16066;DHT22;8137;48.952;8.970;2022-09-27T12:17:25;9.70;99.90
16066;DHT22;8137;48.952;8.970;2022-09-27T12:19:57;9.70;99.90
16066;DHT22;8137;48.952;8.970;2022-09-27T12:22:34;9.60;99.90
16066;DHT22;8137;48.952;8.970;2022-09-27T12:25:02;9.60;99.90
16066;DHT22;8137;48.952;8.970;2022-09-27T12:27:36;9.60;99.90
16066;DHT22;8137;48.952;8.970;2022-09-27T12:30:04;9.50;99.90
16066;DHT22;8137;48.952;8.970;2022-09-27T12:32:39;9.60;99.90
16066;DHT22;8137;48.952;8.970;2022-09-27T12:35:18;9.80;99.90
16066;DHT22;8137;48.952;8.970;2022-09-27T12:40:36;9.80;99.90
16066;DHT22;8137;48.952;8.970;2022-09-27T12:51:19;9.80;99.90
16066;DHT22;8137;48.952;8.970;2022-09-27T13:05:13;9.30;99.90
16066;DHT22;8137;48.952;8.970;2022-09-27T13:13:32;10.10;99.90
16066;DHT22;8137;48.952;8.970;2022-09-27T13:16:00;10.30;99.90
16066;DHT22;8137;48.952;8.970;2022-09-27T13:21:07;10.70;99.90
16066;DHT22;8137;48.952;8.970;2022-09-27T13:28:59;11.00;99.90
16066;DHT22;8137;48.952;8.970;2022-09-27T13:34:39;11.10;99.90
16066;DHT22;8137;48.952;8.970;2022-09-27T13:37:33;11.30;99.90
16066;DHT22;8137;48.952;8.970;2022-09-27T13:40:10;11.30;99.90
16066;DHT22;8137;48.952;8.970;2022-09-27T13:43:35;11.30;99.90
16066;DHT22;8137;48.952;8.970;2022-09-27T13:53:28;10.80;99.90
16066;DHT22;8137;48.952;8.970;2022-09-27T13:55:55;10.70;99.90
16066;DHT22;8137;48.952;8.970;2022-09-27T14:01:39;10.80;99.90
16066;DHT22;8137;48.952;8.970;2022-09-27T14:06:46;10.80;99.90
16066;DHT22;8137;48.952;8.970;2022-09-27T14:09:36;10.90;99.90
16066;DHT22;8137;48.952;8.970;2022-09-27T14:12:10;10.90;99.90
16066;DHT22;8137;48.952;8.970;2022-09-27T14:14:36;10.70;99.90
16066;DHT22;8137;48.952;8.970;2022-09-27T14:17:06;10.70;99.90
16066;DHT22;8137;48.952;8.970;2022-09-27T14:19:32;10.50;99.90
16066;DHT22;8137;48.952;8.970;2022-09-27T14:21:58;10.40;99.90
16066;DHT22;8137;48.952;8.970;2022-09-27T14:24:31;10.40;99.90
16066;DHT22;8137;48.952;8.970;2022-09-27T14:27:16;10.40;99.90
16066;DHT22;8137;48.952;8.970;2022-09-27T14:29:49;10.40;99.90
16066;DHT22;8137;48.952;8.970;2022-09-27T14:32:17;10.40;99.90
16066;DHT22;8137;48.952;8.970;2022-09-27T14:34:44;10.40;99.90
16066;DHT22;8137;48.952;8.970;2022-09-27T14:37:19;10.60;99.90
16066;DHT22;8137;48.952;8.970;2022-09-27T14:40:01;10.70;99.90
16066;DHT22;8137;48.952;8.970;2022-09-27T14:42:34;10.70;99.90
16066;DHT22;8137;48.952;8.970;2022-09-27T14:45:21;10.60;99.90
16066;DHT22;8137;48.952;8.970;2022-09-27T14:47:50;10.50;99.90
16066;DHT22;8137;48.952;8.970;2022-09-27T14:50:25;10.60;99.90
16066;DHT22;8137;48.952;8.970;2022-09-27T14:52:52;10.70;99.90
16066;DHT22;8137;48.952;8.970;2022-09-27T14:55:27;10.90;99.90
16066;DHT22;8137;48.952;8.970;2022-09-27T14:57:54;11.40;99.90
16066;DHT22;8137;48.952;8.970;2022-09-27T15:02:49;11.80;99.90
16066;DHT22;8137;48.952;8.970;2022-09-27T15:05:24;11.80;99.90
16066;DHT22;8137;48.952;8.970;2022-09-27T15:07:51;11.60;99.90
16066;DHT22;8137;48.952;8.970;2022-09-27T15:10:18;11.30;99.90
16066;DHT22;8137;48.952;8.970;2022-09-27T15:12:47;11.30;99.90
16066;DHT22;8137;48.952;8.970;2022-09-27T15:15:18;11.40;99.90
16066;DHT22;8137;48.952;8.970;2022-09-27T15:17:45;11.40;99.90
16066;DHT22;8137;48.952;8.970;2022-09-27T15:20:27;11.60;99.90
16066;DHT22;8137;48.952;8.970;2022-09-27T15:22:54;11.60;99.90
16066;DHT22;8137;48.952;8.970;2022-09-27T15:28:00;11.60;99.90
16066;DHT22;8137;48.952;8.970;2022-09-27T15:30:39;11.60;99.90
16066;DHT22;8137;48.952;8.970;2022-09-27T15:33:16;11.60;99.90
16066;DHT22;8137;48.952;8.970;2022-09-27T15:35:54;11.60;99.90
16066;DHT22;8137;48.952;8.970;2022-09-27T15:38:42;11.60;99.90
16066;DHT22;8137;48.952;8.970;2022-09-27T15:41:16;11.80;99.90
16066;DHT22;8137;48.952;8.970;2022-09-27T15:43:46;11.90;99.90
16066;DHT22;8137;48.952;8.970;2022-09-27T15:46:31;11.80;99.90
16066;DHT22;8137;48.952;8.970;2022-09-27T15:49:19;11.80;99.90
16066;DHT22;8137;48.952;8.970;2022-09-27T15:51:52;11.60;99.90
16066;DHT22;8137;48.952;8.970;2022-09-27T15:54:19;11.50;99.90
16066;DHT22;8137;48.952;8.970;2022-09-27T15:56:49;11.40;99.90
16066;DHT22;8137;48.952;8.970;2022-09-27T15:59:25;11.60;99.90
16066;DHT22;8137;48.952;8.970;2022-09-27T16:01:55;11.70;99.90
16066;DHT22;8137;48.952;8.970;2022-09-27T16:04:20;11.80;99.90
16066;DHT22;8137;48.952;8.970;2022-09-27T16:06:46;11.80;99.90
16066;DHT22;8137;48.952;8.970;2022-09-27T16:09:19;11.90;99.90
16066;DHT22;8137;48.952;8.970;2022-09-27T16:11:46;11.90;99.90
16066;DHT22;8137;48.952;8.970;2022-09-27T16:14:13;11.80;99.90
16066;DHT22;8137;48.952;8.970;2022-09-27T16:16:48;11.80;99.90
16066;DHT22;8137;48.952;8.970;2022-09-27T16:19:14;11.90;99.90
16066;DHT22;8137;48.952;8.970;2022-09-27T16:21:39;11.80;99.90
16066;DHT22;8137;48.952;8.970;2022-09-27T16:24:07;11.70;99.90
16066;DHT22;8137;48.952;8.970;2022-09-27T16:26:33;11.50;99.90
16066;DHT22;8137;48.952;8.970;2022-09-27T16:28:59;11.30;99.90
16066;DHT22;8137;48.952;8.970;2022-09-27T16:31:24;11.10;99.90
16066;DHT22;8137;48.952;8.970;2022-09-27T16:33:50;11.00;99.90
16066;DHT22;8137;48.952;8.970;2022-09-27T16:36:15;10.80;99.90
16066;DHT22;8137;48.952;8.970;2022-09-27T16:38:51;10.70;99.90
16066;DHT22;8137;48.952;8.970;2022-09-27T16:41:18;10.50;99.90
16066;DHT22;8137;48.952;8.970;2022-09-27T16:43:44;10.40;99.90
16066;DHT22;8137;48.952;8.970;2022-09-27T16:46:12;10.30;99.90
16066;DHT22;8137;48.952;8.970;2022-09-27T16:48:43;10.20;99.90
16066;DHT22;8137;48.952;8.970;2022-09-27T16:51:19;10.10;99.90
16066;DHT22;8137;48.952;8.970;2022-09-27T16:54:05;10.00;99.90
16066;DHT22;8137;48.952;8.970;2022-09-27T16:56:32;9.90;99.90
16066;DHT22;8137;48.952;8.970;2022-09-27T16:58:59;9.90;99.90
16066;DHT22;8137;48.952;8.970;2022-09-27T17:01:33;9.90;99.90
16066;DHT22;8137;48.952;8.970;2022-09-27T17:03:58;9.90;99.90
16066;DHT22;8137;48.952;8.970;2022-09-27T17:06:25;9.80;99.90
16066;DHT22;8137;48.952;8.970;2022-09-27T17:08:53;9.70;99.90
16066;DHT22;8137;48.952;8.970;2022-09-27T17:11:19;9.60;99.90
16066;DHT22;8137;48.952;8.970;2022-09-27T17:13:45;9.50;99.90
16066;DHT22;8137;48.952;8.970;2022-09-27T17:16:13;9.40;99.90
16066;DHT22;8137;48.952;8.970;2022-09-27T17:18:40;9.40;99.90
16066;DHT22;8137;48.952;8.970;2022-09-27T17:21:07;9.50;99.90
16066;DHT22;8137;48.952;8.970;2022-09-27T17:23:34;9.50;99.90
16066;DHT22;8137;48.952;8.970;2022-09-27T17:26:11;9.50;99.90
16066;DHT22;8137;48.952;8.970;2022-09-27T17:28:38;9.50;99.90
16066;DHT22;8137;48.952;8.970;2022-09-27T17:31:08;9.50;99.90
16066;DHT22;8137;48.952;8.970;2022-09-27T17:33:43;9.50;99.90
16066;DHT22;8137;48.952;8.970;2022-09-27T17:36:24;9.50;99.90
16066;DHT22;8137;48.952;8.970;2022-09-27T17:38:51;9.40;99.90
16066;DHT22;8137;48.952;8.970;2022-09-27T17:41:19;9.40;99.90
16066;DHT22;8137;48.952;8.970;2022-09-27T17:43:45;9.30;99.90
16066;DHT22;8137;48.952;8.970;2022-09-27T17:46:19;9.30;99.90
16066;DHT22;8137;48.952;8.970;2022-09-27T17:48:45;9.30;99.90
16066;DHT22;8137;48.952;8.970;2022-09-27T17:51:30;9.20;99.90
16066;DHT22;8137;48.952;8.970;2022-09-27T17:53:56;9.10;99.90
16066;DHT22;8137;48.952;8.970;2022-09-27T17:56:22;9.10;99.90
16066;DHT22;8137;48.952;8.970;2022-09-27T17:58:49;9.00;99.90
16066;DHT22;8137;48.952;8.970;2022-09-27T18:01:16;8.90;99.90
16066;DHT22;8137;48.952;8.970;2022-09-27T18:03:43;8.80;99.90
16066;DHT22;8137;48.952;8.970;2022-09-27T18:06:10;8.80;99.90
16066;DHT22;8137;48.952;8.970;2022-09-27T18:08:36;8.70;99.90
16066;DHT22;8137;48.952;8.970;2022-09-27T18:11:12;8.60;99.90
16066;DHT22;8137;48.952;8.970;2022-09-27T18:13:38;8.60;99.90
16066;DHT22;8137;48.952;8.970;2022-09-27T18:16:11;8.60;99.90
16066;DHT22;8137;48.952;8.970;2022-09-27T18:18:38;8.50;99.90
16066;DHT22;8137;48.952;8.970;2022-09-27T18:21:05;8.50;99.90
16066;DHT22;8137;48.952;8.970;2022-09-27T18:23:32;8.40;99.90
16066;DHT22;8137;48.952;8.970;2022-09-27T18:25:58;8.40;99.90
16066;DHT22;8137;48.952;8.970;2022-09-27T18:28:27;8.40;99.90
16066;DHT22;8137;48.952;8.970;2022-09-27T18:30:53;8.30;99.90
16066;DHT22;8137;48.952;8.970;2022-09-27T18:33:21;8.30;99.90
16066;DHT22;8137;48.952;8.970;2022-09-27T18:35:46;8.30;99.90
16066;DHT22;8137;48.952;8.970;2022-09-27T18:38:12;8.30;99.90
16066;DHT22;8137;48.952;8.970;2022-09-27T18:40:38;8.20;99.90
16066;DHT22;8137;48.952;8.970;2022-09-27T18:43:03;8.20;99.90
16066;DHT22;8137;48.952;8.970;2022-09-27T18:45:29;8.20;99.90
16066;DHT22;8137;48.952;8.970;2022-09-27T18:47:54;8.10;99.90
16066;DHT22;8137;48.952;8.970;2022-09-27T18:50:20;8.10;99.90
16066;DHT22;8137;48.952;8.970;2022-09-27T18:52:46;8.00;99.90
16066;DHT22;8137;48.952;8.970;2022-09-27T18:55:11;8.00;99.90
16066;DHT22;8137;48.952;8.970;2022-09-27T18:57:37;7.90;99.90